createdAt,value
2018-07-14T00:00:22.938Z,988.93
2018-07-14T00:01:22.581Z,988.89
2018-07-14T00:02:22.550Z,988.89
2018-07-14T00:03:22.572Z,988.88
2018-07-14T00:04:22.397Z,988.86
2018-07-14T00:05:22.778Z,988.86
2018-07-14T00:06:22.487Z,988.83
2018-07-14T00:07:22.334Z,988.83
2018-07-14T00:08:22.351Z,988.81
2018-07-14T00:09:22.400Z,988.85
2018-07-14T00:10:22.920Z,988.81
2018-07-14T00:11:22.413Z,988.82
2018-07-14T00:12:22.297Z,988.81
2018-07-14T00:13:24.002Z,988.84
2018-07-14T00:14:22.969Z,988.85
2018-07-14T00:15:22.878Z,988.83
2018-07-14T00:16:22.382Z,988.81
2018-07-14T00:17:22.478Z,988.78
2018-07-14T00:18:22.126Z,988.78
2018-07-14T00:19:22.085Z,988.76
2018-07-14T00:20:22.174Z,988.73
2018-07-14T00:21:22.753Z,988.73
2018-07-14T00:22:22.025Z,988.72
2018-07-14T00:23:22.064Z,988.69
2018-07-14T00:24:21.936Z,988.66
2018-07-14T00:25:21.928Z,988.64
2018-07-14T00:26:22.089Z,988.60
2018-07-14T00:27:21.854Z,988.59
2018-07-14T00:28:21.791Z,988.59
2018-07-14T00:29:21.791Z,988.59
2018-07-14T00:30:21.739Z,988.60
2018-07-14T00:31:21.810Z,988.63
2018-07-14T00:32:21.708Z,988.61
2018-07-14T00:33:21.656Z,988.65
2018-07-14T00:34:21.686Z,988.63
2018-07-14T00:35:21.622Z,988.64
2018-07-14T00:36:21.889Z,988.61
2018-07-14T00:37:21.874Z,988.58
2018-07-14T00:38:21.623Z,988.63
2018-07-14T00:39:21.574Z,988.61
2018-07-14T00:40:21.500Z,988.62
2018-07-14T00:41:21.479Z,988.61
2018-07-14T00:42:21.463Z,988.59
2018-07-14T00:43:21.596Z,988.57
2018-07-14T00:44:21.423Z,988.60
2018-07-14T00:45:21.368Z,988.64
2018-07-14T00:46:21.348Z,988.61
2018-07-14T00:47:21.324Z,988.63
2018-07-14T00:48:21.339Z,988.63
2018-07-14T00:49:21.294Z,988.59
2018-07-14T00:50:21.231Z,988.61
2018-07-14T00:51:21.230Z,988.59
2018-07-14T00:52:21.203Z,988.54
2018-07-14T00:53:21.256Z,988.51
2018-07-14T00:54:21.222Z,988.51
2018-07-14T00:55:21.105Z,988.51
2018-07-14T00:56:21.083Z,988.51
2018-07-14T00:57:21.056Z,988.50
2018-07-14T00:58:21.078Z,988.53
2018-07-14T00:59:21.649Z,988.55
2018-07-14T01:00:21.215Z,988.57
2018-07-14T01:01:21.010Z,988.53
2018-07-14T01:02:20.938Z,988.53
2018-07-14T01:03:20.909Z,988.54
2018-07-14T01:04:21.515Z,988.53
2018-07-14T01:05:20.876Z,988.54
2018-07-14T01:06:20.840Z,988.56
2018-07-14T01:07:20.798Z,988.61
2018-07-14T01:08:20.781Z,988.64
2018-07-14T01:09:20.866Z,988.68
2018-07-14T01:10:20.718Z,988.72
2018-07-14T01:11:20.701Z,988.73
2018-07-14T01:12:21.207Z,988.76
2018-07-14T01:13:21.177Z,988.78
2018-07-14T01:14:21.257Z,988.78
2018-07-14T01:15:20.611Z,988.82
2018-07-14T01:16:20.570Z,988.84
2018-07-14T01:17:20.598Z,988.85
2018-07-14T01:18:21.095Z,988.86
2018-07-14T01:19:20.617Z,988.91
2018-07-14T01:20:20.561Z,988.93
2018-07-14T01:21:20.979Z,988.95
2018-07-14T01:22:20.439Z,988.98
2018-07-14T01:23:20.416Z,988.92
2018-07-14T01:24:20.394Z,988.96
2018-07-14T01:25:20.997Z,988.96
2018-07-14T01:26:20.919Z,988.98
2018-07-14T01:27:20.339Z,988.96
2018-07-14T01:28:20.266Z,989.00
2018-07-14T01:29:20.822Z,988.96
2018-07-14T01:30:20.309Z,988.94
2018-07-14T01:31:20.320Z,988.94
2018-07-14T01:32:20.179Z,988.94
2018-07-14T01:33:20.184Z,989.00
2018-07-14T01:34:20.640Z,989.04
2018-07-14T01:35:20.101Z,989.11
2018-07-14T01:36:20.075Z,989.15
2018-07-14T01:37:20.160Z,989.19
2018-07-14T01:38:20.033Z,989.22
2018-07-14T01:39:20.005Z,989.24
2018-07-14T01:40:19.979Z,989.19
2018-07-14T01:41:20.509Z,989.23
2018-07-14T01:42:20.010Z,989.25
2018-07-14T01:43:20.452Z,989.21
2018-07-14T01:44:20.420Z,989.22
2018-07-14T01:45:19.881Z,989.22
2018-07-14T01:46:19.830Z,989.19
2018-07-14T01:47:19.834Z,989.19
2018-07-14T01:48:19.780Z,989.24
2018-07-14T01:49:19.737Z,989.25
2018-07-14T01:50:19.716Z,989.24
2018-07-14T01:51:19.695Z,989.25
2018-07-14T01:52:19.766Z,989.27
2018-07-14T01:53:19.707Z,989.30
2018-07-14T01:54:19.626Z,989.32
2018-07-14T01:55:19.585Z,989.35
2018-07-14T01:56:19.585Z,989.35
2018-07-14T01:57:20.185Z,989.35
2018-07-14T01:58:20.027Z,989.37
2018-07-14T01:59:20.026Z,989.35
2018-07-14T02:00:19.478Z,989.33
2018-07-14T02:01:19.473Z,989.36
2018-07-14T02:02:19.418Z,989.37
2018-07-14T02:03:19.482Z,989.40
2018-07-14T02:04:19.924Z,989.40
2018-07-14T02:05:19.351Z,989.37
2018-07-14T02:06:19.843Z,989.39
2018-07-14T02:07:19.294Z,989.40
2018-07-14T02:08:19.328Z,989.41
2018-07-14T02:09:19.323Z,989.42
2018-07-14T02:10:19.216Z,989.41
2018-07-14T02:11:19.191Z,989.44
2018-07-14T02:12:19.455Z,989.43
2018-07-14T02:13:19.126Z,989.46
2018-07-14T02:14:19.155Z,989.43
2018-07-14T02:15:19.169Z,989.44
2018-07-14T02:16:19.245Z,989.45
2018-07-14T02:17:19.016Z,989.48
2018-07-14T02:18:19.023Z,989.50
2018-07-14T02:19:18.968Z,989.49
2018-07-14T02:21:18.953Z,989.47
2018-07-14T02:22:18.895Z,989.46
2018-07-14T02:23:18.856Z,989.44
2018-07-14T02:24:19.397Z,989.53
2018-07-14T02:25:18.933Z,989.53
2018-07-14T02:26:18.797Z,989.54
2018-07-14T02:27:18.785Z,989.50
2018-07-14T02:28:18.754Z,989.52
2018-07-14T02:29:18.729Z,989.54
2018-07-14T02:30:18.797Z,989.59
2018-07-14T02:31:18.672Z,989.60
2018-07-14T02:32:18.657Z,989.59
2018-07-14T02:33:18.621Z,989.60
2018-07-14T02:34:18.600Z,989.63
2018-07-14T02:35:18.692Z,989.62
2018-07-14T02:36:18.529Z,989.55
2018-07-14T02:37:18.506Z,989.54
2018-07-14T02:38:19.044Z,989.52
2018-07-14T02:39:18.466Z,989.50
2018-07-14T02:40:18.428Z,989.52
2018-07-14T02:41:19.053Z,989.50
2018-07-14T02:42:18.398Z,989.45
2018-07-14T02:43:18.359Z,989.40
2018-07-14T02:44:18.384Z,989.35
2018-07-14T02:45:18.314Z,989.28
2018-07-14T02:46:18.309Z,989.19
2018-07-14T02:47:18.352Z,989.15
2018-07-14T02:48:18.739Z,989.11
2018-07-14T02:49:18.208Z,989.13
2018-07-14T02:50:18.238Z,989.13
2018-07-14T02:51:18.134Z,989.17
2018-07-14T02:52:18.303Z,989.25
2018-07-14T02:53:18.102Z,989.27
2018-07-14T02:54:18.067Z,989.31
2018-07-14T02:55:18.038Z,989.31
2018-07-14T02:56:18.031Z,989.30
2018-07-14T02:57:18.161Z,989.30
2018-07-14T02:58:17.954Z,989.29
2018-07-14T02:59:18.005Z,989.27
2018-07-14T03:00:17.914Z,989.29
2018-07-14T03:01:17.874Z,989.31
2018-07-14T03:02:17.960Z,989.33
2018-07-14T03:03:17.833Z,989.37
2018-07-14T03:04:17.807Z,989.42
2018-07-14T03:05:17.823Z,989.41
2018-07-14T03:06:17.753Z,989.42
2018-07-14T03:07:17.826Z,989.44
2018-07-14T03:08:18.310Z,989.48
2018-07-14T03:09:17.669Z,989.56
2018-07-14T03:10:17.661Z,989.56
2018-07-14T03:11:17.627Z,989.62
2018-07-14T03:12:18.226Z,989.65
2018-07-14T03:13:17.609Z,989.68
2018-07-14T03:14:17.675Z,989.68
2018-07-14T03:15:17.625Z,989.70
2018-07-14T03:16:17.577Z,989.67
2018-07-14T03:17:17.530Z,989.71
2018-07-14T03:18:17.680Z,989.75
2018-07-14T03:19:17.469Z,989.80
2018-07-14T03:20:17.461Z,989.85
2018-07-14T03:21:17.381Z,989.88
2018-07-14T03:22:17.415Z,989.89
2018-07-14T03:23:17.344Z,989.90
2018-07-14T03:24:18.348Z,989.95
2018-07-14T03:25:17.271Z,989.95
2018-07-14T03:26:17.240Z,989.96
2018-07-14T03:27:17.311Z,989.93
2018-07-14T03:28:17.424Z,989.98
2018-07-14T03:29:17.266Z,989.97
2018-07-14T03:30:17.114Z,990.01
2018-07-14T03:31:17.120Z,990.01
2018-07-14T03:32:17.082Z,990.02
2018-07-14T03:33:17.107Z,990.03
2018-07-14T03:34:17.159Z,990.07
2018-07-14T03:35:17.005Z,990.09
2018-07-14T03:36:17.063Z,990.07
2018-07-14T03:37:16.936Z,990.09
2018-07-14T03:38:16.924Z,990.08
2018-07-14T03:39:16.985Z,990.08
2018-07-14T03:40:16.854Z,990.08
2018-07-14T03:41:16.839Z,990.07
2018-07-14T03:42:16.811Z,990.04
2018-07-14T03:43:17.328Z,990.07
2018-07-14T03:44:16.873Z,990.06
2018-07-14T03:45:16.733Z,990.09
2018-07-14T03:46:16.696Z,990.09
2018-07-14T03:47:16.676Z,990.08
2018-07-14T03:48:16.663Z,990.08
2018-07-14T03:49:16.718Z,990.10
2018-07-14T03:50:16.613Z,990.08
2018-07-14T03:51:16.569Z,990.08
2018-07-14T03:52:17.084Z,990.07
2018-07-14T03:53:16.528Z,990.07
2018-07-14T03:54:16.501Z,990.10
2018-07-14T03:55:16.572Z,990.10
2018-07-14T03:56:16.453Z,990.09
2018-07-14T03:57:16.427Z,990.08
2018-07-14T03:58:16.381Z,990.09
2018-07-14T03:59:16.371Z,990.03
2018-07-14T04:00:16.351Z,990.06
2018-07-14T04:01:16.402Z,990.08
2018-07-14T04:02:16.304Z,990.08
2018-07-14T04:03:16.256Z,990.04
2018-07-14T04:04:16.243Z,990.08
2018-07-14T04:05:16.227Z,990.09
2018-07-14T04:06:16.318Z,990.09
2018-07-14T04:07:16.141Z,990.07
2018-07-14T04:08:16.153Z,990.09
2018-07-14T04:09:16.114Z,990.12
2018-07-14T04:10:16.080Z,990.14
2018-07-14T04:11:16.108Z,990.18
2018-07-14T04:12:16.029Z,990.22
2018-07-14T04:13:16.016Z,990.26
2018-07-14T04:14:15.981Z,990.31
2018-07-14T04:15:15.939Z,990.32
2018-07-14T04:16:16.022Z,990.35
2018-07-14T04:17:15.928Z,990.38
2018-07-14T04:18:15.905Z,990.41
2018-07-14T04:19:15.855Z,990.45
2018-07-14T04:20:15.804Z,990.45
2018-07-14T04:21:15.897Z,990.48
2018-07-14T04:22:15.771Z,990.48
2018-07-14T04:23:15.726Z,990.48
2018-07-14T04:24:15.738Z,990.49
2018-07-14T04:25:15.701Z,990.45
2018-07-14T04:26:15.747Z,990.50
2018-07-14T04:27:15.633Z,990.48
2018-07-14T04:28:15.597Z,990.51
2018-07-14T04:29:15.583Z,990.57
2018-07-14T04:30:15.549Z,990.52
2018-07-14T04:31:15.526Z,990.53
2018-07-14T04:32:15.536Z,990.54
2018-07-14T04:33:15.480Z,990.47
2018-07-14T04:34:15.445Z,990.54
2018-07-14T04:35:15.416Z,990.49
2018-07-14T04:36:15.444Z,990.45
2018-07-14T04:37:15.373Z,990.49
2018-07-14T04:38:15.445Z,990.43
2018-07-14T04:39:15.309Z,990.43
2018-07-14T04:40:15.318Z,990.40
2018-07-14T04:41:15.310Z,990.39
2018-07-14T04:42:15.234Z,990.43
2018-07-14T04:43:15.251Z,990.40
2018-07-14T04:44:15.168Z,990.47
2018-07-14T04:45:15.168Z,990.45
2018-07-14T04:46:15.162Z,990.42
2018-07-14T04:47:15.122Z,990.38
2018-07-14T04:48:15.174Z,990.39
2018-07-14T04:49:15.041Z,990.33
2018-07-14T04:50:15.024Z,990.33
2018-07-14T04:51:15.016Z,990.41
2018-07-14T04:52:14.967Z,990.46
2018-07-14T04:53:15.025Z,990.49
2018-07-14T04:54:14.930Z,990.54
2018-07-14T04:55:14.887Z,990.56
2018-07-14T04:56:14.877Z,990.63
2018-07-14T04:57:14.840Z,990.65
2018-07-14T04:58:14.870Z,990.66
2018-07-14T04:59:14.789Z,990.67
2018-07-14T05:00:14.754Z,990.72
2018-07-14T05:01:14.733Z,990.68
2018-07-14T05:02:14.712Z,990.71
2018-07-14T05:03:14.830Z,990.67
2018-07-14T05:04:14.676Z,990.65
2018-07-14T05:05:14.633Z,990.63
2018-07-14T05:06:14.611Z,990.60
2018-07-14T05:07:14.566Z,990.61
2018-07-14T05:08:14.574Z,990.55
2018-07-14T05:09:14.621Z,990.52
2018-07-14T05:10:14.490Z,990.49
2018-07-14T05:11:14.484Z,990.41
2018-07-14T05:12:14.438Z,990.38
2018-07-14T05:13:14.417Z,990.39
2018-07-14T05:14:14.410Z,990.27
2018-07-14T05:15:14.408Z,990.24
2018-07-14T05:16:14.345Z,990.25
2018-07-14T05:17:14.318Z,990.27
2018-07-14T05:18:14.332Z,990.24
2018-07-14T05:19:14.281Z,990.31
2018-07-14T05:20:14.311Z,990.31
2018-07-14T05:21:14.240Z,990.35
2018-07-14T05:22:14.185Z,990.36
2018-07-14T05:23:14.156Z,990.40
2018-07-14T05:24:14.122Z,990.41
2018-07-14T05:25:14.198Z,990.42
2018-07-14T05:26:14.085Z,990.44
2018-07-14T05:27:14.041Z,990.45
2018-07-14T05:28:14.020Z,990.48
2018-07-14T05:29:14.010Z,990.50
2018-07-14T05:30:14.034Z,990.58
2018-07-14T05:31:13.941Z,990.61
2018-07-14T05:32:13.932Z,990.63
2018-07-14T05:33:13.894Z,990.64
2018-07-14T05:34:13.915Z,990.60
2018-07-14T05:35:13.939Z,990.60
2018-07-14T05:36:13.818Z,990.61
2018-07-14T05:37:13.804Z,990.60
2018-07-14T05:38:13.752Z,990.58
2018-07-14T05:39:13.731Z,990.61
2018-07-14T05:40:13.762Z,990.58
2018-07-14T05:41:13.771Z,990.55
2018-07-14T05:42:13.652Z,990.51
2018-07-14T05:43:13.624Z,990.46
2018-07-14T05:44:13.596Z,990.44
2018-07-14T05:45:13.600Z,990.44
2018-07-14T05:46:13.628Z,990.44
2018-07-14T05:47:13.533Z,990.47
2018-07-14T05:48:13.503Z,990.46
2018-07-14T05:49:13.486Z,990.44
2018-07-14T05:50:13.444Z,990.38
2018-07-14T05:51:13.424Z,990.38
2018-07-14T05:52:13.461Z,990.36
2018-07-14T05:53:13.385Z,990.29
2018-07-14T05:54:13.351Z,990.34
2018-07-14T05:55:13.321Z,990.43
2018-07-14T05:56:13.293Z,990.42
2018-07-14T05:57:13.288Z,990.40
2018-07-14T05:58:13.306Z,990.38
2018-07-14T05:59:13.232Z,990.38
2018-07-14T06:00:13.184Z,990.32
2018-07-14T06:01:13.183Z,990.31
2018-07-14T06:02:13.143Z,990.27
2018-07-14T06:03:13.154Z,990.24
2018-07-14T06:04:13.080Z,990.26
2018-07-14T06:05:13.110Z,990.25
2018-07-14T06:06:13.019Z,990.26
2018-07-14T06:07:12.999Z,990.27
2018-07-14T06:08:13.040Z,990.28
2018-07-14T06:09:12.937Z,990.30
2018-07-14T06:10:12.938Z,990.31
2018-07-14T06:11:12.909Z,990.33
2018-07-14T06:12:12.913Z,990.32
2018-07-14T06:13:12.841Z,990.30
2018-07-14T06:14:12.917Z,990.28
2018-07-14T06:15:12.835Z,990.31
2018-07-14T06:16:12.765Z,990.27
2018-07-14T06:17:12.784Z,990.27
2018-07-14T06:18:12.711Z,990.25
2018-07-14T06:19:12.743Z,990.27
2018-07-14T06:20:12.667Z,990.23
2018-07-14T06:21:12.630Z,990.18
2018-07-14T06:22:12.611Z,990.18
2018-07-14T06:23:12.590Z,990.17
2018-07-14T06:24:12.598Z,990.11
2018-07-14T06:25:12.529Z,990.04
2018-07-14T06:26:12.519Z,989.99
2018-07-14T06:27:12.467Z,989.98
2018-07-14T06:28:12.443Z,989.89
2018-07-14T06:29:12.421Z,989.84
2018-07-14T06:30:12.459Z,989.74
2018-07-14T06:31:12.369Z,989.73
2018-07-14T06:32:12.339Z,989.73
2018-07-14T06:33:12.326Z,989.70
2018-07-14T06:34:12.299Z,989.67
2018-07-14T06:35:12.262Z,989.67
2018-07-14T06:36:12.328Z,989.68
2018-07-14T06:37:12.196Z,989.71
2018-07-14T06:38:12.184Z,989.69
2018-07-14T06:39:12.165Z,989.69
2018-07-14T06:40:12.132Z,989.61
2018-07-14T06:41:12.136Z,989.53
2018-07-14T06:42:12.064Z,989.45
2018-07-14T06:43:12.059Z,989.38
2018-07-14T06:44:12.051Z,989.37
2018-07-14T06:45:11.987Z,989.45
2018-07-14T06:46:12.035Z,989.47
2018-07-14T06:47:11.952Z,989.46
2018-07-14T06:48:11.916Z,989.40
2018-07-14T06:49:11.888Z,989.41
2018-07-14T06:50:11.848Z,989.39
2018-07-14T06:51:11.877Z,989.38
2018-07-14T06:52:11.866Z,989.36
2018-07-14T06:53:11.791Z,989.36
2018-07-14T06:54:11.820Z,989.32
2018-07-14T06:55:11.721Z,989.36
2018-07-14T06:56:11.696Z,989.35
2018-07-14T06:57:11.758Z,989.42
2018-07-14T06:58:11.649Z,989.44
2018-07-14T06:59:11.636Z,989.43
2018-07-14T07:00:11.612Z,989.38
2018-07-14T07:01:11.566Z,989.40
2018-07-14T07:02:11.581Z,989.39
2018-07-14T07:03:11.522Z,989.36
2018-07-14T07:04:11.487Z,989.38
2018-07-14T07:05:11.457Z,989.39
2018-07-14T07:06:11.429Z,989.47
2018-07-14T07:07:11.408Z,989.52
2018-07-14T07:08:11.428Z,989.53
2018-07-14T07:09:11.332Z,989.57
2018-07-14T07:10:11.320Z,989.55
2018-07-14T07:11:11.288Z,989.56
2018-07-14T07:12:11.255Z,989.53
2018-07-14T07:13:11.234Z,989.62
2018-07-14T07:14:11.276Z,989.67
2018-07-14T07:15:11.187Z,989.65
2018-07-14T07:16:11.160Z,989.67
2018-07-14T07:17:11.130Z,989.73
2018-07-14T07:18:11.109Z,989.69
2018-07-14T07:19:11.126Z,989.67
2018-07-14T07:20:11.042Z,989.65
2018-07-14T07:21:11.034Z,989.66
2018-07-14T07:22:11.013Z,989.65
2018-07-14T07:23:10.955Z,989.75
2018-07-14T07:24:10.948Z,989.80
2018-07-14T07:25:10.983Z,989.82
2018-07-14T07:26:10.892Z,989.87
2018-07-14T07:27:10.880Z,989.84
2018-07-14T07:28:10.826Z,989.85
2018-07-14T07:29:10.797Z,989.77
2018-07-14T07:30:10.826Z,989.67
2018-07-14T07:31:10.748Z,989.63
2018-07-14T07:32:10.725Z,989.56
2018-07-14T07:33:10.696Z,989.53
2018-07-14T07:34:10.657Z,989.52
2018-07-14T07:35:10.711Z,989.50
2018-07-14T07:36:10.611Z,989.51
2018-07-14T07:37:10.597Z,989.46
2018-07-14T07:38:10.551Z,989.45
2018-07-14T07:39:10.575Z,989.45
2018-07-14T07:40:10.568Z,989.36
2018-07-14T07:41:10.470Z,989.30
2018-07-14T07:42:10.493Z,989.26
2018-07-14T07:43:10.501Z,989.18
2018-07-14T07:44:10.415Z,989.14
2018-07-14T07:45:10.372Z,989.12
2018-07-14T07:46:10.400Z,989.04
2018-07-14T07:47:10.327Z,989.00
2018-07-14T07:48:10.298Z,988.94
2018-07-14T07:49:10.278Z,988.88
2018-07-14T07:50:10.239Z,988.82
2018-07-14T07:51:10.250Z,988.79
2018-07-14T07:52:10.210Z,988.79
2018-07-14T07:53:10.156Z,988.77
2018-07-14T07:54:10.111Z,988.77
2018-07-14T07:55:10.109Z,988.76
2018-07-14T07:56:10.118Z,988.70
2018-07-14T07:57:10.103Z,988.71
2018-07-14T07:58:10.012Z,988.67
2018-07-14T07:59:10.111Z,988.64
2018-07-14T08:00:09.954Z,988.60
2018-07-14T08:01:09.940Z,988.58
2018-07-14T08:02:09.961Z,988.52
2018-07-14T08:03:09.890Z,988.51
2018-07-14T08:04:09.843Z,988.52
2018-07-14T08:05:09.831Z,988.47
2018-07-14T08:06:09.820Z,988.42
2018-07-14T08:07:09.823Z,988.40
2018-07-14T08:08:09.762Z,988.40
2018-07-14T08:09:09.728Z,988.49
2018-07-14T08:10:09.702Z,988.57
2018-07-14T08:11:09.679Z,988.58
2018-07-14T08:12:09.682Z,988.63
2018-07-14T08:13:09.629Z,988.69
2018-07-14T08:14:09.602Z,988.74
2018-07-14T08:15:09.557Z,988.77
2018-07-14T08:16:09.597Z,988.79
2018-07-14T08:17:09.554Z,988.82
2018-07-14T08:18:09.476Z,988.83
2018-07-14T08:19:09.439Z,988.80
2018-07-14T08:20:09.411Z,988.83
2018-07-14T08:21:09.401Z,988.83
2018-07-14T08:22:09.477Z,988.80
2018-07-14T08:23:09.489Z,988.77
2018-07-14T08:24:09.316Z,988.77
2018-07-14T08:25:09.296Z,988.74
2018-07-14T08:26:09.270Z,988.71
2018-07-14T08:27:09.237Z,988.70
2018-07-14T08:28:09.307Z,988.64
2018-07-14T08:29:09.220Z,988.57
2018-07-14T08:30:09.160Z,988.49
2018-07-14T08:31:09.137Z,988.38
2018-07-14T08:32:09.098Z,988.29
2018-07-14T08:33:09.127Z,988.30
2018-07-14T08:34:09.094Z,988.25
2018-07-14T08:35:09.002Z,988.18
2018-07-14T08:36:08.974Z,988.07
2018-07-14T08:37:08.954Z,987.95
2018-07-14T08:38:08.987Z,987.90
2018-07-14T08:39:09.014Z,987.73
2018-07-14T08:40:08.890Z,987.68
2018-07-14T08:41:08.850Z,987.55
2018-07-14T08:42:08.819Z,987.49
2018-07-14T08:43:08.791Z,987.45
2018-07-14T08:44:08.829Z,987.38
2018-07-14T08:45:08.755Z,987.34
2018-07-14T08:46:08.720Z,987.20
2018-07-14T08:47:08.698Z,987.17
2018-07-14T08:48:08.664Z,987.15
2018-07-14T08:49:08.682Z,987.13
2018-07-14T08:50:08.602Z,987.14
2018-07-14T08:51:08.581Z,987.14
2018-07-14T08:52:08.546Z,987.18
2018-07-14T08:53:08.553Z,987.23
2018-07-14T08:54:08.558Z,987.32
2018-07-14T08:55:08.479Z,987.36
2018-07-14T08:56:08.427Z,987.36
2018-07-14T08:57:08.430Z,987.41
2018-07-14T08:58:08.431Z,987.32
2018-07-14T08:59:08.371Z,987.27
2018-07-14T09:00:08.385Z,987.26
2018-07-14T09:01:08.314Z,987.22
2018-07-14T09:02:08.286Z,987.20
2018-07-14T09:03:08.262Z,987.19
2018-07-14T09:04:08.219Z,987.18
2018-07-14T09:05:08.191Z,987.12
2018-07-14T09:06:08.219Z,987.08
2018-07-14T09:07:08.149Z,987.02
2018-07-14T09:08:08.117Z,986.86
2018-07-14T09:09:08.097Z,986.78
2018-07-14T09:10:08.067Z,986.70
2018-07-14T09:11:08.077Z,986.61
2018-07-14T09:12:08.018Z,986.54
2018-07-14T09:13:07.994Z,986.46
2018-07-14T09:14:07.949Z,986.42
2018-07-14T09:15:07.912Z,986.33
2018-07-14T09:16:07.993Z,986.24
2018-07-14T09:17:07.919Z,986.14
2018-07-14T09:18:07.850Z,986.08
2018-07-14T09:19:07.849Z,986.01
2018-07-14T09:20:07.790Z,986.01
2018-07-14T09:21:07.821Z,986.04
2018-07-14T09:22:07.730Z,986.07
2018-07-14T09:23:07.705Z,986.12
2018-07-14T09:24:07.670Z,986.17
2018-07-14T09:25:07.647Z,986.24
2018-07-14T09:26:07.711Z,986.38
2018-07-14T09:27:07.606Z,986.55
2018-07-14T09:28:07.572Z,986.63
2018-07-14T09:29:07.552Z,986.61
2018-07-14T09:30:07.506Z,986.53
2018-07-14T09:31:07.599Z,986.44
2018-07-14T09:32:07.494Z,986.34
2018-07-14T09:33:07.449Z,986.30
2018-07-14T09:34:07.414Z,986.30
2018-07-14T09:35:07.373Z,986.35
2018-07-14T09:36:07.347Z,986.38
2018-07-14T09:37:07.377Z,986.45
2018-07-14T09:38:07.318Z,986.42
2018-07-14T09:39:07.345Z,986.44
2018-07-14T09:40:07.245Z,986.45
2018-07-14T09:41:07.209Z,986.39
2018-07-14T09:42:07.226Z,986.31
2018-07-14T09:43:07.199Z,986.28
2018-07-14T09:44:07.204Z,986.24
2018-07-14T09:45:07.108Z,986.29
2018-07-14T09:46:07.085Z,986.32
2018-07-14T09:49:07.086Z,986.43
2018-07-14T09:50:06.961Z,986.57
2018-07-14T09:51:06.931Z,986.64
2018-07-14T09:52:06.918Z,986.74
2018-07-14T09:53:06.959Z,986.91
2018-07-14T09:54:06.926Z,986.99
2018-07-14T09:55:06.889Z,987.11
2018-07-14T09:56:06.809Z,987.15
2018-07-14T09:57:06.775Z,987.27
2018-07-14T09:58:06.758Z,987.35
2018-07-14T09:59:06.820Z,987.44
2018-07-14T10:00:06.739Z,987.44
2018-07-14T10:01:06.665Z,987.47
2018-07-14T10:02:06.635Z,987.50
2018-07-14T10:03:06.641Z,987.58
2018-07-14T10:04:06.650Z,987.62
2018-07-14T10:05:06.569Z,987.61
2018-07-14T10:06:06.629Z,987.63
2018-07-14T10:07:06.521Z,987.64
2018-07-14T10:08:06.473Z,987.63
2018-07-14T10:09:06.509Z,987.61
2018-07-14T10:10:06.469Z,987.64
2018-07-14T10:11:06.402Z,987.63
2018-07-14T10:12:06.364Z,987.54
2018-07-14T10:13:06.367Z,987.53
2018-07-14T10:14:06.317Z,987.57
2018-07-14T10:15:06.351Z,987.61
2018-07-14T10:16:06.272Z,987.64
2018-07-14T10:17:06.234Z,987.72
2018-07-14T10:18:06.237Z,987.69
2018-07-14T10:19:06.167Z,987.65
2018-07-14T10:20:06.221Z,987.64
2018-07-14T10:21:06.118Z,987.65
2018-07-14T10:22:06.110Z,987.71
2018-07-14T10:23:06.058Z,987.67
2018-07-14T10:24:06.037Z,987.75
2018-07-14T10:25:06.068Z,987.77
2018-07-14T10:26:05.979Z,987.76
2018-07-14T10:27:05.967Z,987.73
2018-07-14T10:28:05.953Z,987.79
2018-07-14T10:29:06.076Z,987.81
2018-07-14T10:30:05.928Z,987.80
2018-07-14T10:31:05.841Z,987.84
2018-07-14T10:32:05.826Z,987.84
2018-07-14T10:33:05.818Z,987.81
2018-07-14T10:34:05.881Z,987.83
2018-07-14T10:35:05.798Z,987.84
2018-07-14T10:36:05.721Z,987.80
2018-07-14T10:37:05.692Z,987.81
2018-07-14T10:38:05.662Z,987.78
2018-07-14T10:39:05.649Z,987.81
2018-07-14T10:40:05.676Z,987.79
2018-07-14T10:41:05.571Z,987.75
2018-07-14T10:42:05.616Z,987.74
2018-07-14T10:43:05.519Z,987.73
2018-07-14T10:44:05.492Z,987.67
2018-07-14T10:45:05.521Z,987.60
2018-07-14T10:46:05.493Z,987.47
2018-07-14T10:47:05.420Z,987.39
2018-07-14T10:48:05.394Z,987.38
2018-07-14T10:49:05.355Z,987.47
2018-07-14T10:50:05.344Z,987.55
2018-07-14T10:51:05.296Z,987.58
2018-07-14T10:52:05.350Z,987.55
2018-07-14T10:53:05.281Z,987.63
2018-07-14T10:54:05.234Z,987.68
2018-07-14T10:55:05.248Z,987.65
2018-07-14T10:56:05.166Z,987.62
2018-07-14T10:57:05.202Z,987.62
2018-07-14T10:58:05.176Z,987.56
2018-07-14T10:59:05.094Z,987.51
2018-07-14T11:00:05.067Z,987.50
2018-07-14T11:01:05.029Z,987.52
2018-07-14T11:02:05.047Z,987.51
2018-07-14T11:03:04.994Z,987.47
2018-07-14T11:04:04.990Z,987.42
2018-07-14T11:05:04.926Z,987.38
2018-07-14T11:06:04.916Z,987.34
2018-07-14T11:07:04.976Z,987.26
2018-07-14T11:08:04.863Z,987.24
2018-07-14T11:09:04.875Z,987.23
2018-07-14T11:10:04.779Z,987.18
2018-07-14T11:11:04.813Z,987.20
2018-07-14T11:12:04.799Z,987.23
2018-07-14T11:13:04.700Z,987.29
2018-07-14T11:14:04.695Z,987.28
2018-07-14T11:15:04.652Z,987.31
2018-07-14T11:16:04.620Z,987.29
2018-07-14T11:17:04.663Z,987.29
2018-07-14T11:18:04.574Z,987.30
2018-07-14T11:19:04.558Z,987.30
2018-07-14T11:20:04.604Z,987.31
2018-07-14T11:21:04.489Z,987.29
2018-07-14T11:22:04.475Z,987.31
2018-07-14T11:23:04.488Z,987.36
2018-07-14T11:24:04.426Z,987.40
2018-07-14T11:25:04.384Z,987.42
2018-07-14T11:26:04.364Z,987.46
2018-07-14T11:27:04.340Z,987.56
2018-07-14T11:28:04.328Z,987.54
2018-07-14T11:29:04.323Z,987.59
2018-07-14T11:30:04.245Z,987.60
2018-07-14T11:31:04.214Z,987.54
2018-07-14T11:32:04.190Z,987.56
2018-07-14T11:33:04.180Z,987.59
2018-07-14T11:34:04.185Z,987.56
2018-07-14T11:35:04.106Z,987.53
2018-07-14T11:36:04.075Z,987.52
2018-07-14T11:37:04.079Z,987.47
2018-07-14T11:38:04.031Z,987.51
2018-07-14T11:39:04.061Z,987.54
2018-07-14T11:40:03.981Z,987.52
2018-07-14T11:41:03.953Z,987.49
2018-07-14T11:42:03.946Z,987.50
2018-07-14T11:43:03.904Z,987.47
2018-07-14T11:44:03.912Z,987.42
2018-07-14T11:45:03.838Z,987.46
2018-07-14T11:46:03.833Z,987.47
2018-07-14T11:47:03.779Z,987.51
2018-07-14T11:48:03.755Z,987.55
2018-07-14T11:49:03.795Z,987.59
2018-07-14T11:50:03.723Z,987.62
2018-07-14T11:51:03.693Z,987.65
2018-07-14T11:52:03.642Z,987.66
2018-07-14T11:53:03.628Z,987.71
2018-07-14T11:54:03.787Z,987.72
2018-07-14T11:55:03.609Z,987.77
2018-07-14T11:56:03.549Z,987.76
2018-07-14T11:57:03.527Z,987.84
2018-07-14T11:58:03.492Z,987.78
2018-07-14T11:59:05.286Z,987.82
2018-07-14T12:00:03.457Z,987.83
2018-07-14T12:01:03.468Z,987.85
2018-07-14T12:02:03.452Z,987.85
2018-07-14T12:03:03.358Z,987.88
2018-07-14T12:04:03.338Z,987.89
2018-07-14T12:05:03.319Z,987.93
2018-07-14T12:06:03.262Z,987.89
2018-07-14T12:07:03.315Z,987.90
2018-07-14T12:08:03.223Z,987.81
2018-07-14T12:09:03.209Z,987.77
2018-07-14T12:10:03.154Z,987.78
2018-07-14T12:11:03.140Z,987.81
2018-07-14T12:12:03.201Z,987.81
2018-07-14T12:13:03.090Z,987.75
2018-07-14T12:14:03.063Z,987.73
2018-07-14T12:15:03.025Z,987.72
2018-07-14T12:16:03.018Z,987.68
2018-07-14T12:17:03.032Z,987.70
2018-07-14T12:18:02.968Z,987.66
2018-07-14T12:19:02.935Z,987.66
2018-07-14T12:20:02.907Z,987.62
2018-07-14T12:21:02.872Z,987.65
2018-07-14T12:22:02.940Z,987.71
2018-07-14T12:23:02.837Z,987.68
2018-07-14T12:24:02.788Z,987.64
2018-07-14T12:25:02.759Z,987.66
2018-07-14T12:26:02.751Z,987.70
2018-07-14T12:27:02.715Z,987.70
2018-07-14T12:28:02.741Z,987.72
2018-07-14T12:29:02.649Z,987.67
2018-07-14T12:30:02.637Z,987.69
2018-07-14T12:31:02.599Z,987.63